Time;durP1;ratioP1;P1;durP2;ratioP2;P2;SDS_P1;SDS_P2;PMS_P1;PMS_P2;Temp;Humidity;BMP_temperature;BMP_pressure;BME280_temperature;BME280_humidity;BME280_pressure;Samples;Min_cycle;Max_cycle;Signal;HPM_P1;HPM_P2
2021/07/24 00:00:15;;;;;;;9.80;7.93;;;14.90;99.90;;;;;;7676091;23;20167;-65
2021/07/24 00:03:17;;;;;;;8.10;7.10;;;14.80;99.90;;;;;;7650216;23;20202;-65
2021/07/24 00:06:19;;;;;;;12.10;7.70;;;14.90;99.90;;;;;;7676669;23;20628;-65
2021/07/24 00:09:22;;;;;;;8.70;7.47;;;14.80;99.90;;;;;;7676426;23;20187;-65
2021/07/24 00:12:24;;;;;;;10.07;7.90;;;14.80;99.90;;;;;;7650375;23;20175;-65
2021/07/24 00:15:26;;;;;;;8.80;7.43;;;14.80;99.90;;;;;;7675797;23;20234;-65
2021/07/24 00:18:29;;;;;;;9.60;7.50;;;14.80;99.90;;;;;;7650000;23;20191;-65
2021/07/24 00:21:32;;;;;;;10.30;7.90;;;14.70;99.90;;;;;;7650018;23;20207;-65
2021/07/24 00:24:34;;;;;;;10.97;7.90;;;14.70;99.90;;;;;;7675883;23;20613;-65
2021/07/24 00:27:36;;;;;;;14.73;8.33;;;14.60;99.90;;;;;;7676096;23;20186;-65
2021/07/24 00:30:40;;;;;;;10.97;8.33;;;14.60;99.90;;;;;;7676017;23;20617;-65
2021/07/24 00:33:50;;;;;;;9.80;8.17;;;14.60;99.90;;;;;;7649878;23;20168;-65
2021/07/24 00:36:55;;;;;;;10.77;8.67;;;14.50;99.90;;;;;;7675845;23;20202;-65
2021/07/24 00:39:58;;;;;;;12.23;8.63;;;14.50;99.90;;;;;;7625680;23;20194;-65
2021/07/24 00:43:02;;;;;;;10.77;8.33;;;14.50;99.90;;;;;;7676193;23;20502;-65
2021/07/24 00:46:07;;;;;;;10.97;8.27;;;14.50;99.90;;;;;;7649209;23;20179;-65
2021/07/24 00:49:12;;;;;;;10.10;7.60;;;14.40;99.90;;;;;;7650030;23;20200;-65
2021/07/24 00:52:25;;;;;;;9.67;8.50;;;14.40;99.90;;;;;;7649638;23;20513;-65
2021/07/24 00:55:27;;;;;;;11.57;8.43;;;14.40;99.90;;;;;;7675860;23;20175;-65
2021/07/24 00:58:36;;;;;;;9.83;8.60;;;14.40;99.90;;;;;;7676498;23;20243;-65
2021/07/24 01:01:43;;;;;;;11.27;8.57;;;14.40;99.90;;;;;;7649466;23;20180;-65
2021/07/24 01:04:52;;;;;;;10.00;8.53;;;14.40;99.90;;;;;;7648312;23;20223;-65
2021/07/24 01:07:56;;;;;;;10.63;8.27;;;14.30;99.90;;;;;;7649502;23;20214;-65
2021/07/24 01:10:58;;;;;;;12.10;8.70;;;14.30;99.90;;;;;;7652204;23;20254;-65
2021/07/24 01:14:01;;;;;;;9.47;8.30;;;14.30;99.90;;;;;;7651613;23;20172;-65
2021/07/24 01:17:04;;;;;;;11.63;8.03;;;14.30;99.90;;;;;;7678346;23;20160;-65
2021/07/24 01:20:15;;;;;;;9.50;8.10;;;14.30;99.90;;;;;;7678473;23;20544;-65
2021/07/24 01:23:19;;;;;;;9.37;8.10;;;14.30;99.90;;;;;;7651395;23;20173;-65
2021/07/24 01:26:37;;;;;;;11.80;8.93;;;14.30;99.90;;;;;;7678549;23;20167;-65
2021/07/24 01:29:40;;;;;;;8.90;8.00;;;14.30;99.90;;;;;;7651205;23;20192;-64
2021/07/24 01:32:48;;;;;;;9.87;8.47;;;14.20;99.90;;;;;;7651934;23;20247;-65
2021/07/24 01:35:51;;;;;;;11.03;9.00;;;14.20;99.90;;;;;;7651770;23;20251;-65
2021/07/24 01:38:54;;;;;;;10.80;7.27;;;14.20;99.90;;;;;;7651757;23;20172;-65
2021/07/24 01:41:57;;;;;;;9.37;8.47;;;14.20;99.90;;;;;;7651920;23;20180;-65
2021/07/24 01:45:02;;;;;;;10.33;7.90;;;14.20;99.90;;;;;;7677806;23;20160;-65
2021/07/24 01:48:11;;;;;;;9.60;7.90;;;14.20;99.90;;;;;;7651655;23;20254;-66
2021/07/24 01:54:45;;;;;;;9.13;7.70;;;14.20;99.90;;;;;;7651646;23;20245;-65
2021/07/24 01:57:51;;;;;;;9.57;7.50;;;14.10;99.90;;;;;;7678625;23;20161;-64
2021/07/24 02:00:58;;;;;;;9.43;8.10;;;14.10;99.90;;;;;;7650892;23;20175;-65
2021/07/24 02:04:15;;;;;;;8.80;7.90;;;14.10;99.90;;;;;;7677986;23;20177;-65
2021/07/24 02:07:23;;;;;;;13.43;7.60;;;14.10;99.90;;;;;;7651146;23;20660;-65
2021/07/24 02:10:32;;;;;;;10.13;7.77;;;14.00;99.90;;;;;;7678008;23;20169;-66
2021/07/24 02:13:36;;;;;;;9.07;7.33;;;14.10;99.90;;;;;;7650510;23;20235;-65
2021/07/24 02:16:40;;;;;;;13.10;8.83;;;14.10;99.90;;;;;;7651522;23;20172;-65
2021/07/24 02:19:44;;;;;;;9.37;8.03;;;14.10;99.90;;;;;;7677499;23;20481;-65
2021/07/24 02:22:46;;;;;;;12.37;8.27;;;14.10;99.90;;;;;;7677452;23;20430;-65
2021/07/24 02:25:50;;;;;;;13.40;8.80;;;14.10;99.90;;;;;;7651128;23;20180;-65
2021/07/24 02:28:52;;;;;;;11.73;7.90;;;14.10;99.90;;;;;;7650449;23;20192;-65
2021/07/24 02:31:56;;;;;;;8.47;7.57;;;14.10;99.90;;;;;;7677516;23;20164;-65
2021/07/24 02:34:58;;;;;;;8.97;7.90;;;14.10;99.90;;;;;;7677552;23;20168;-65
2021/07/24 02:38:02;;;;;;;10.23;8.27;;;14.00;99.90;;;;;;7677007;23;20174;-65
2021/07/24 02:41:04;;;;;;;8.80;7.90;;;14.00;99.90;;;;;;7677656;23;20243;-65
2021/07/24 02:44:07;;;;;;;12.70;7.70;;;14.10;99.90;;;;;;7650828;23;20219;-65
2021/07/24 02:47:11;;;;;;;8.63;7.73;;;14.10;99.90;;;;;;7651220;23;20624;-65
2021/07/24 02:50:19;;;;;;;8.37;7.23;;;14.10;99.90;;;;;;7650500;23;20684;-65
2021/07/24 02:53:22;;;;;;;10.87;7.80;;;14.00;99.90;;;;;;7650814;23;20242;-65
2021/07/24 02:56:25;;;;;;;9.50;8.00;;;14.00;99.90;;;;;;7626873;23;20548;-65
2021/07/24 02:59:27;;;;;;;10.40;7.90;;;14.00;99.90;;;;;;7650461;23;20597;-65
2021/07/24 03:02:30;;;;;;;10.30;8.47;;;14.00;99.90;;;;;;7677295;23;20168;-65
2021/07/24 03:05:32;;;;;;;9.20;8.30;;;14.00;99.90;;;;;;7676362;23;20188;-65
2021/07/24 03:08:34;;;;;;;12.23;8.43;;;14.00;99.90;;;;;;7677142;23;20195;-65
2021/07/24 03:11:37;;;;;;;9.50;8.07;;;14.00;99.90;;;;;;7677253;23;20167;-65
2021/07/24 03:14:40;;;;;;;11.30;8.03;;;14.00;99.90;;;;;;7650126;23;20303;-65
2021/07/24 03:17:42;;;;;;;10.07;7.60;;;14.00;99.90;;;;;;7650514;23;20171;-65
2021/07/24 03:20:44;;;;;;;9.67;8.30;;;14.00;99.90;;;;;;7650568;23;20195;-65
2021/07/24 03:23:46;;;;;;;12.40;8.70;;;14.00;99.90;;;;;;7650443;23;20174;-66
2021/07/24 03:26:49;;;;;;;8.90;8.00;;;13.90;99.90;;;;;;7650329;23;20490;-65
2021/07/24 03:29:51;;;;;;;9.83;8.20;;;13.90;99.90;;;;;;7676325;23;20268;-65
2021/07/24 03:32:53;;;;;;;9.37;8.33;;;13.90;99.90;;;;;;7676528;23;20171;-65
2021/07/24 03:35:56;;;;;;;9.80;7.83;;;13.90;99.90;;;;;;7676164;23;20172;-65
2021/07/24 03:38:58;;;;;;;9.23;8.17;;;13.80;99.90;;;;;;7676813;23;20178;-65
2021/07/24 03:42:02;;;;;;;8.40;7.50;;;13.80;99.90;;;;;;7676237;23;20171;-65
2021/07/24 03:45:04;;;;;;;9.63;8.10;;;13.90;99.90;;;;;;7650232;23;20186;-65
2021/07/24 03:48:07;;;;;;;10.33;8.13;;;13.90;99.90;;;;;;7676614;23;20195;-65
2021/07/24 03:51:13;;;;;;;9.13;7.97;;;13.90;99.90;;;;;;7675854;23;20239;-65
2021/07/24 03:54:15;;;;;;;8.90;8.00;;;14.00;99.90;;;;;;7676074;23;20232;-65
2021/07/24 03:57:18;;;;;;;9.90;8.60;;;14.00;99.90;;;;;;7675671;23;20167;-65
2021/07/24 04:00:22;;;;;;;11.60;8.37;;;14.00;99.90;;;;;;7676275;23;20617;-65
2021/07/24 04:03:25;;;;;;;11.20;8.63;;;14.00;99.90;;;;;;7675987;23;20172;-65
2021/07/24 04:06:27;;;;;;;9.37;8.27;;;14.00;99.90;;;;;;7650099;23;20188;-65
2021/07/24 04:09:31;;;;;;;10.23;8.50;;;14.00;99.90;;;;;;7649531;23;20191;-65
2021/07/24 04:12:41;;;;;;;9.97;8.53;;;14.00;99.90;;;;;;7649506;23;20740;-65
2021/07/24 04:15:43;;;;;;;11.40;9.03;;;14.00;99.90;;;;;;7675964;23;20163;-65
2021/07/24 04:18:46;;;;;;;9.27;8.20;;;14.00;99.90;;;;;;7676155;23;20167;-65
2021/07/24 04:21:48;;;;;;;10.90;9.43;;;14.10;99.90;;;;;;7675567;23;20222;-65
2021/07/24 04:24:51;;;;;;;10.00;8.93;;;14.10;99.90;;;;;;7676069;23;20164;-65
2021/07/24 04:27:53;;;;;;;11.17;9.13;;;14.20;99.90;;;;;;7675611;23;20174;-65
2021/07/24 04:30:55;;;;;;;10.37;8.63;;;14.10;99.90;;;;;;7675989;23;20185;-65
2021/07/24 04:33:57;;;;;;;12.57;9.73;;;14.20;99.90;;;;;;7675647;23;20171;-65
2021/07/24 04:37:00;;;;;;;10.93;9.47;;;14.20;99.90;;;;;;7676002;23;20164;-66
2021/07/24 04:40:04;;;;;;;10.13;8.93;;;14.30;99.90;;;;;;7676070;23;20193;-65
2021/07/24 04:43:06;;;;;;;10.67;9.57;;;14.30;99.90;;;;;;7676671;23;20171;-65
2021/07/24 04:46:09;;;;;;;11.07;9.57;;;14.30;99.90;;;;;;7651842;23;20172;-65
2021/07/24 04:49:11;;;;;;;10.97;9.47;;;14.30;99.90;;;;;;7677824;23;20187;-65
2021/07/24 04:52:14;;;;;;;10.57;9.33;;;14.40;99.90;;;;;;7678465;23;20505;-65
2021/07/24 04:55:17;;;;;;;11.30;9.97;;;14.40;99.90;;;;;;7678109;23;20160;-65
2021/07/24 04:58:21;;;;;;;10.63;9.53;;;14.50;99.90;;;;;;7651845;23;20168;-65
2021/07/24 05:01:23;;;;;;;11.93;9.80;;;14.50;99.90;;;;;;7678665;23;20251;-65
2021/07/24 05:04:26;;;;;;;12.47;10.27;;;14.60;99.90;;;;;;7677610;23;20611;-65
2021/07/24 05:07:29;;;;;;;10.60;9.50;;;14.60;99.90;;;;;;7677997;23;20255;-65
2021/07/24 05:10:33;;;;;;;10.90;9.70;;;14.70;99.90;;;;;;7678308;23;20191;-65
2021/07/24 05:13:35;;;;;;;10.63;9.43;;;14.70;99.90;;;;;;7677714;23;20164;-65
2021/07/24 05:16:37;;;;;;;11.00;9.67;;;14.80;99.90;;;;;;7678714;23;20160;-65
2021/07/24 05:19:42;;;;;;;12.00;9.97;;;14.90;99.90;;;;;;7677497;23;20243;-65
2021/07/24 05:22:44;;;;;;;13.23;10.60;;;15.00;99.90;;;;;;7678061;23;20176;-65
2021/07/24 05:25:46;;;;;;;10.80;9.63;;;15.10;99.90;;;;;;7650996;23;20223;-65
2021/07/24 05:28:49;;;;;;;10.77;9.53;;;15.10;99.90;;;;;;7627061;23;20196;-65
2021/07/24 05:31:51;;;;;;;11.67;10.43;;;15.10;99.90;;;;;;7677797;23;20295;-65
2021/07/24 05:34:53;;;;;;;11.13;9.40;;;15.20;99.90;;;;;;7677426;23;20485;-65
2021/07/24 05:37:55;;;;;;;10.20;9.13;;;15.30;99.90;;;;;;7677592;23;20175;-65
2021/07/24 05:41:00;;;;;;;10.80;9.33;;;15.40;99.90;;;;;;7651096;23;20609;-65
2021/07/24 05:44:02;;;;;;;10.57;9.37;;;15.40;99.90;;;;;;7677519;23;20168;-65
2021/07/24 05:47:05;;;;;;;10.73;9.50;;;15.50;99.90;;;;;;7677796;23;20164;-65
2021/07/24 05:50:08;;;;;;;13.53;9.80;;;15.60;99.90;;;;;;7650669;23;20199;-65
2021/07/24 05:53:10;;;;;;;12.37;10.10;;;15.60;99.90;;;;;;7677305;23;20168;-65
2021/07/24 05:56:12;;;;;;;10.77;9.67;;;15.70;99.90;;;;;;7676560;23;20628;-65
2021/07/24 05:59:14;;;;;;;10.97;9.87;;;15.80;99.90;;;;;;7651694;23;20174;-64
2021/07/24 06:02:17;;;;;;;13.13;9.90;;;15.90;99.90;;;;;;7677578;23;20628;-65
2021/07/24 06:05:19;;;;;;;10.03;9.03;;;16.00;99.90;;;;;;7676579;23;20192;-65
2021/07/24 06:08:21;;;;;;;12.93;9.77;;;16.30;99.90;;;;;;7650189;23;20182;-65
2021/07/24 06:11:24;;;;;;;11.50;9.20;;;16.50;99.90;;;;;;7674540;23;20160;-65
2021/07/24 06:14:26;;;;;;;13.13;9.80;;;16.80;99.90;;;;;;7675495;23;20179;-65
2021/07/24 06:17:28;;;;;;;9.70;8.60;;;16.90;99.90;;;;;;7675244;23;20356;-65
2021/07/24 06:20:30;;;;;;;10.70;8.60;;;17.00;99.90;;;;;;7648219;23;20194;-65
2021/07/24 06:23:34;;;;;;;9.50;8.33;;;17.10;99.90;;;;;;7674217;23;20174;-65
2021/07/24 06:26:40;;;;;;;10.17;8.60;;;17.20;99.90;;;;;;7676783;23;20238;-65
2021/07/24 06:29:43;;;;;;;11.13;8.33;;;17.30;99.90;;;;;;7675314;23;20180;-65
2021/07/24 06:32:46;;;;;;;9.50;8.50;;;17.40;99.90;;;;;;7647688;23;20247;-65
2021/07/24 06:35:48;;;;;;;11.93;9.30;;;17.50;99.90;;;;;;7674525;23;20164;-65
2021/07/24 06:38:50;;;;;;;10.40;9.07;;;17.70;99.90;;;;;;7674435;23;20193;-65
2021/07/24 06:41:52;;;;;;;10.97;9.10;;;17.80;99.90;;;;;;7673935;23;20238;-65
2021/07/24 06:44:54;;;;;;;10.37;8.93;;;18.00;99.90;;;;;;7649732;23;20176;-65
2021/07/24 06:47:57;;;;;;;9.33;8.40;;;18.20;99.90;;;;;;7676371;23;20171;-65
2021/07/24 06:50:59;;;;;;;12.07;9.60;;;18.30;99.90;;;;;;7676797;23;20247;-65
2021/07/24 06:54:02;;;;;;;11.13;8.77;;;18.50;99.90;;;;;;7650547;23;20160;-65
2021/07/24 06:57:04;;;;;;;11.70;8.33;;;18.80;99.90;;;;;;7625008;23;20234;-65
2021/07/24 07:00:06;;;;;;;10.30;8.10;;;19.10;99.90;;;;;;7676624;23;20251;-65
2021/07/24 07:03:09;;;;;;;11.20;8.00;;;19.40;99.90;;;;;;7674529;23;20642;-65
2021/07/24 07:06:13;;;;;;;20.03;8.70;;;19.70;99.90;;;;;;7675968;23;20278;-65
2021/07/24 07:09:16;;;;;;;8.70;7.67;;;20.00;99.90;;;;;;7676029;23;20184;-65
2021/07/24 07:12:18;;;;;;;10.80;8.17;;;20.30;99.90;;;;;;7677993;23;20175;-65
2021/07/24 07:15:24;;;;;;;10.43;7.50;;;20.60;99.90;;;;;;7676944;23;20171;-66
2021/07/24 07:18:26;;;;;;;9.50;7.90;;;20.90;99.90;;;;;;7675738;23;20153;-65
2021/07/24 07:21:29;;;;;;;10.30;8.10;;;21.20;99.90;;;;;;7676727;23;20211;-65
2021/07/24 07:24:31;;;;;;;7.40;6.70;;;21.30;99.80;;;;;;7677503;23;20654;-66
2021/07/24 07:27:33;;;;;;;8.53;7.07;;;21.50;99.30;;;;;;7677352;23;20175;-65
2021/07/24 07:30:36;;;;;;;8.07;7.27;;;21.80;99.80;;;;;;7625792;23;20207;-65
2021/07/24 07:33:38;;;;;;;7.47;6.77;;;22.00;98.00;;;;;;7676521;23;20160;-65
2021/07/24 07:36:40;;;;;;;9.37;7.60;;;22.30;97.50;;;;;;7650478;23;20597;-65
2021/07/24 07:39:42;;;;;;;9.03;7.77;;;22.60;96.00;;;;;;7676632;23;20172;-65
2021/07/24 07:42:44;;;;;;;8.87;7.37;;;22.90;96.00;;;;;;7650023;23;20164;-65
2021/07/24 07:45:51;;;;;;;9.03;7.60;;;23.20;94.10;;;;;;7676604;23;20250;-65
2021/07/24 07:48:53;;;;;;;7.77;6.57;;;23.40;94.60;;;;;;7676065;23;20236;-66
2021/07/24 07:51:55;;;;;;;7.80;6.93;;;23.70;94.50;;;;;;7676231;23;20168;-70
2021/07/24 07:54:58;;;;;;;7.67;6.87;;;24.00;94.10;;;;;;7648576;23;20209;-66
2021/07/24 07:58:01;;;;;;;8.83;7.30;;;24.40;94.20;;;;;;7675639;23;20250;-65
2021/07/24 08:01:10;;;;;;;8.37;7.27;;;24.70;92.90;;;;;;7675799;23;20167;-65
2021/07/24 08:04:13;;;;;;;7.17;6.40;;;24.90;90.80;;;;;;7676039;23;20227;-64
2021/07/24 08:07:17;;;;;;;8.47;7.33;;;25.10;91.80;;;;;;7674889;23;20164;-64
2021/07/24 08:10:19;;;;;;;8.00;7.13;;;25.30;91.50;;;;;;7675477;23;20188;-65
2021/07/24 08:13:22;;;;;;;7.10;6.40;;;25.50;91.20;;;;;;7676434;23;20164;-66
2021/07/24 08:16:24;;;;;;;10.30;7.45;;;25.60;91.10;;;;;;7675387;23;20183;-65
2021/07/24 08:19:27;;;;;;;11.75;6.95;;;25.90;89.10;;;;;;7675430;23;20172;-65
2021/07/24 08:22:29;;;;;;;8.50;6.97;;;26.10;88.80;;;;;;7674661;23;20200;-65
2021/07/24 08:25:32;;;;;;;7.95;6.60;;;26.30;83.90;;;;;;7674929;23;20504;-66
2021/07/24 08:28:34;;;;;;;7.63;6.47;;;26.60;86.60;;;;;;7675904;23;20171;-65
2021/07/24 08:31:36;;;;;;;8.50;7.60;;;26.90;87.70;;;;;;7648631;23;20187;-66
2021/07/24 08:34:39;;;;;;;6.72;5.97;;;27.00;79.00;;;;;;7649581;23;20609;-67
2021/07/24 08:37:41;;;;;;;8.10;6.72;;;27.20;82.90;;;;;;7675808;23;20161;-65
2021/07/24 08:40:47;;;;;;;7.15;6.18;;;27.50;82.70;;;;;;7675098;23;20171;-66
2021/07/24 08:43:49;;;;;;;7.50;6.80;;;27.50;79.00;;;;;;7676551;23;20160;-65
2021/07/24 08:46:52;;;;;;;8.23;6.63;;;27.70;77.20;;;;;;7648988;23;20172;-67
2021/07/24 08:49:55;;;;;;;8.07;6.80;;;28.00;77.50;;;;;;7676434;23;20194;-66
2021/07/24 08:53:03;;;;;;;7.80;6.75;;;28.40;76.10;;;;;;7674511;23;20236;-66
2021/07/24 08:56:15;;;;;;;7.70;6.65;;;28.60;75.70;;;;;;7675487;23;20160;-66
2021/07/24 08:59:20;;;;;;;9.35;6.65;;;28.70;73.20;;;;;;7675932;23;20160;-67
2021/07/24 09:02:26;;;;;;;7.22;6.53;;;28.60;71.00;;;;;;7674974;23;20491;-66
2021/07/24 09:05:31;;;;;;;7.57;6.78;;;28.90;74.20;;;;;;7675248;23;20637;-66
2021/07/24 09:08:34;;;;;;;12.70;7.68;;;29.30;75.50;;;;;;7648727;23;20172;-66
2021/07/24 09:11:37;;;;;;;9.73;7.88;;;29.40;71.20;;;;;;7649418;23;20480;-65
2021/07/24 09:14:39;;;;;;;9.52;7.20;;;29.30;73.30;;;;;;7673428;23;20510;-66
2021/07/24 09:17:42;;;;;;;8.20;7.18;;;29.10;69.30;;;;;;7649529;23;20164;-65
2021/07/24 09:20:46;;;;;;;7.13;6.43;;;29.20;73.30;;;;;;7675363;23;20532;-66
2021/07/24 09:23:48;;;;;;;7.57;6.78;;;29.50;70.10;;;;;;7648703;23;20597;-66
2021/07/24 09:26:51;;;;;;;7.88;7.07;;;29.70;69.10;;;;;;7649234;23;20242;-66
2021/07/24 09:29:53;;;;;;;8.00;7.30;;;29.70;67.40;;;;;;7675164;23;20188;-67
2021/07/24 09:33:08;;;;;;;10.95;7.60;;;30.00;70.10;;;;;;7676810;23;20613;-67
2021/07/24 09:36:10;;;;;;;8.30;7.50;;;30.20;70.10;;;;;;7677525;23;20159;-67
2021/07/24 09:39:14;;;;;;;9.18;7.43;;;30.40;64.60;;;;;;7677231;23;20167;-66
2021/07/24 09:42:19;;;;;;;7.95;7.15;;;30.30;63.10;;;;;;7677662;23;20171;-67
2021/07/24 09:45:25;;;;;;;8.07;7.32;;;30.40;68.70;;;;;;7651482;23;20155;-68
2021/07/24 09:48:28;;;;;;;9.77;7.68;;;30.50;67.20;;;;;;7675365;23;20164;-68
2021/07/24 09:51:35;;;;;;;8.18;7.38;;;30.70;63.60;;;;;;7675253;23;20180;-67
2021/07/24 09:54:38;;;;;;;9.10;8.20;;;30.70;70.10;;;;;;7674573;23;20152;-67
2021/07/24 09:57:40;;;;;;;9.00;8.10;;;30.70;61.80;;;;;;7648348;23;20167;-67
2021/07/24 10:00:42;;;;;;;8.18;7.38;;;30.40;62.10;;;;;;7648253;23;20191;-68
2021/07/24 10:03:50;;;;;;;8.70;7.80;;;30.40;62.80;;;;;;7650661;23;20291;-67
2021/07/24 10:07:12;;;;;;;8.23;7.50;;;30.60;61.30;;;;;;7676327;23;20188;-67
2021/07/24 10:10:17;;;;;;;8.25;7.45;;;30.80;62.90;;;;;;7651240;23;20202;-67
2021/07/24 10:13:21;;;;;;;10.48;7.80;;;31.20;60.20;;;;;;7677163;23;20609;-68
2021/07/24 10:16:24;;;;;;;9.25;7.53;;;31.50;62.90;;;;;;7650184;23;20191;-67
2021/07/24 10:19:27;;;;;;;9.18;7.75;;;31.30;59.20;;;;;;7677222;23;20222;-66
2021/07/24 10:22:30;;;;;;;7.63;6.95;;;31.40;59.70;;;;;;7676695;23;20267;-66
2021/07/24 10:25:53;;;;;;;9.30;8.32;;;31.40;58.90;;;;;;7676882;23;20215;-65
2021/07/24 10:29:01;;;;;;;9.07;8.00;;;31.20;58.10;;;;;;7650099;23;20176;-66
2021/07/24 10:32:08;;;;;;;10.10;7.43;;;31.50;59.80;;;;;;7674040;23;20251;-65
2021/07/24 10:35:10;;;;;;;8.07;7.28;;;31.90;59.80;;;;;;7676685;23;20226;-66
2021/07/24 10:38:31;;;;;;;8.23;6.85;;;32.00;58.30;;;;;;7676008;23;20488;-68
2021/07/24 10:41:35;;;;;;;8.45;7.65;;;32.30;58.90;;;;;;7673911;23;20500;-66
2021/07/24 10:44:40;;;;;;;8.05;7.25;;;32.70;58.40;;;;;;7647781;23;20182;-67
2021/07/24 10:48:14;;;;;;;9.00;8.13;;;32.50;56.00;;;;;;7677022;23;20605;-65
2021/07/24 10:51:17;;;;;;;8.32;7.53;;;32.30;56.10;;;;;;7676016;23;20195;-66
2021/07/24 10:54:19;;;;;;;9.52;7.13;;;32.20;57.20;;;;;;7650270;23;20659;-66
2021/07/24 10:57:43;;;;;;;8.10;7.30;;;32.50;56.50;;;;;;7676850;23;20493;-66
2021/07/24 11:00:57;;;;;;;7.78;7.07;;;32.30;55.00;;;;;;7674193;23;20180;-67
2021/07/24 11:03:59;;;;;;;10.07;8.30;;;32.30;55.30;;;;;;7650348;23;20243;-66
2021/07/24 11:07:14;;;;;;;9.63;7.22;;;32.60;54.30;;;;;;7676001;23;20188;-65
2021/07/24 11:10:16;;;;;;;7.32;6.72;;;32.60;54.30;;;;;;7649786;23;20231;-66
2021/07/24 11:13:46;;;;;;;8.38;7.47;;;32.60;54.00;;;;;;7676328;23;20167;-67
2021/07/24 11:17:08;;;;;;;7.90;7.10;;;32.80;54.40;;;;;;7676393;23;20639;-66
2021/07/24 11:20:10;;;;;;;8.77;7.38;;;33.20;55.10;;;;;;7676004;23;20598;-65
2021/07/24 11:23:13;;;;;;;8.63;7.72;;;33.10;52.60;;;;;;7676997;23;20164;-66
2021/07/24 11:26:16;;;;;;;10.07;7.35;;;33.00;52.40;;;;;;7677466;23;20246;-67
2021/07/24 11:29:25;;;;;;;9.90;7.43;;;32.90;52.90;;;;;;7650943;23;20659;-66
2021/07/24 11:32:28;;;;;;;10.23;7.28;;;33.10;52.30;;;;;;7650910;23;20164;-66
2021/07/24 11:35:34;;;;;;;8.05;7.10;;;33.30;52.50;;;;;;7676742;23;20171;-67
2021/07/24 11:38:39;;;;;;;9.18;7.38;;;33.30;54.00;;;;;;7648828;23;20529;-66
2021/07/24 11:41:42;;;;;;;8.13;6.97;;;33.00;53.90;;;;;;7649671;23;20171;-66
2021/07/24 11:44:48;;;;;;;7.88;7.18;;;33.00;54.50;;;;;;7674157;23;20168;-66
2021/07/24 11:48:07;;;;;;;7.85;7.15;;;33.40;53.00;;;;;;7675575;23;20156;-66
2021/07/24 11:51:10;;;;;;;8.50;7.50;;;33.90;52.50;;;;;;7677335;23;20271;-66
2021/07/24 11:54:12;;;;;;;8.30;7.50;;;33.80;51.80;;;;;;7675636;23;20171;-66
2021/07/24 11:57:28;;;;;;;9.15;8.10;;;33.80;51.20;;;;;;7675868;23;20160;-67
2021/07/24 12:00:37;;;;;;;7.75;7.00;;;33.80;51.60;;;;;;7675664;23;20496;-66
2021/07/24 12:03:41;;;;;;;8.65;7.60;;;33.90;51.60;;;;;;7675848;23;20163;-66
2021/07/24 12:07:01;;;;;;;7.93;7.10;;;34.00;51.00;;;;;;7674101;23;20188;-66
2021/07/24 12:10:04;;;;;;;9.38;7.45;;;33.70;51.00;;;;;;7675571;23;20176;-66
2021/07/24 12:13:07;;;;;;;9.57;7.88;;;33.30;50.90;;;;;;7674974;23;20184;-66
2021/07/24 12:16:10;;;;;;;8.48;7.68;;;33.10;52.30;;;;;;7673211;23;20168;-66
2021/07/24 12:19:17;;;;;;;7.20;6.60;;;33.40;51.70;;;;;;7675464;23;20559;-66
2021/07/24 12:22:22;;;;;;;9.35;8.05;;;33.90;51.60;;;;;;7672402;23;20207;-66
2021/07/24 12:25:24;;;;;;;8.70;7.65;;;34.40;49.80;;;;;;7648052;23;20176;-67
2021/07/24 12:28:30;;;;;;;7.40;6.80;;;34.70;50.50;;;;;;7676472;23;20168;-67
2021/07/24 12:31:33;;;;;;;10.00;7.80;;;34.60;49.50;;;;;;7676273;23;20187;-67
2021/07/24 12:34:36;;;;;;;8.25;7.55;;;34.60;50.10;;;;;;7675931;23;20171;-66
2021/07/24 12:37:38;;;;;;;8.15;7.28;;;34.70;50.00;;;;;;7674103;23;20566;-74
2021/07/24 12:40:43;;;;;;;8.88;8.07;;;34.80;49.10;;;;;;7649471;23;20175;-71
2021/07/24 12:44:06;;;;;;;8.40;7.60;;;34.70;50.20;;;;;;7646898;23;20630;-67
2021/07/24 12:47:14;;;;;;;7.63;7.03;;;35.00;49.10;;;;;;7675099;23;20255;-67
2021/07/24 12:50:17;;;;;;;8.40;7.30;;;35.00;48.00;;;;;;7674862;23;20518;-68
2021/07/24 12:53:19;;;;;;;10.25;7.95;;;34.90;48.00;;;;;;7649847;23;20307;-66
2021/07/24 12:56:21;;;;;;;8.15;7.45;;;35.30;49.50;;;;;;7648797;23;20164;-68
2021/07/24 12:59:24;;;;;;;8.80;7.25;;;35.70;48.10;;;;;;7674219;23;20449;-71
2021/07/24 13:02:27;;;;;;;7.55;6.75;;;35.90;47.20;;;;;;7673998;23;20585;-68
2021/07/24 13:05:30;;;;;;;9.10;8.23;;;36.00;47.10;;;;;;7675152;23;20188;-70
2021/07/24 13:08:32;;;;;;;7.25;6.55;;;35.90;47.20;;;;;;7676023;23;20191;-72
2021/07/24 13:11:34;;;;;;;7.47;6.78;;;35.70;47.10;;;;;;7676130;23;20192;-69
2021/07/24 13:14:37;;;;;;;8.48;7.45;;;35.80;46.90;;;;;;7650123;23;20267;-66
2021/07/24 13:17:39;;;;;;;8.10;7.38;;;35.70;46.00;;;;;;7677831;23;20460;-67
2021/07/24 13:20:42;;;;;;;8.45;7.28;;;35.00;46.90;;;;;;7677560;23;20208;-69
2021/07/24 13:23:45;;;;;;;9.00;8.20;;;35.00;48.10;;;;;;7676495;23;20172;-71
2021/07/24 13:30:09;;;;;;;7.80;7.15;;;35.80;47.90;;;;;;7677990;23;20227;-67
2021/07/24 13:33:13;;;;;;;7.90;6.35;;;35.90;46.70;;;;;;7677090;23;20214;-65
2021/07/24 13:36:15;;;;;;;7.97;7.05;;;36.30;48.50;;;;;;7675457;23;20145;-65
2021/07/24 13:39:18;;;;;;;7.78;7.13;;;36.50;46.10;;;;;;7677799;23;20160;-66
2021/07/24 13:42:20;;;;;;;7.70;7.00;;;36.80;45.80;;;;;;7677162;23;20172;-65
2021/07/24 13:45:23;;;;;;;10.27;7.00;;;37.00;45.00;;;;;;7677304;23;20172;-71
2021/07/24 13:48:26;;;;;;;7.82;7.13;;;37.50;44.40;;;;;;7651147;23;20215;-70
2021/07/24 13:51:28;;;;;;;7.80;7.10;;;37.40;43.60;;;;;;7676639;23;20184;-69
2021/07/24 13:54:32;;;;;;;7.53;6.82;;;36.80;44.80;;;;;;7651554;23;20176;-77
2021/07/24 13:57:38;;;;;;;7.93;7.22;;;36.80;43.90;;;;;;7653089;23;20507;-72
2021/07/24 14:00:40;;;;;;;8.10;7.30;;;37.20;44.70;;;;;;7652109;23;20204;-67
2021/07/24 14:03:43;;;;;;;7.95;7.18;;;37.80;43.40;;;;;;7677326;23;20200;-67
2021/07/24 14:06:45;;;;;;;7.68;6.82;;;38.00;44.20;;;;;;7676490;23;20543;-67
2021/07/24 14:09:47;;;;;;;7.93;7.22;;;38.30;43.20;;;;;;7676980;23;20168;-66
2021/07/24 14:12:49;;;;;;;7.18;6.55;;;38.80;43.40;;;;;;7677175;23;20539;-66
2021/07/24 14:15:57;;;;;;;8.30;7.47;;;39.20;42.50;;;;;;7676862;23;20203;-67
2021/07/24 14:18:59;;;;;;;9.93;7.70;;;39.50;41.60;;;;;;7677973;23;20480;-66
2021/07/24 14:22:01;;;;;;;9.18;6.43;;;39.60;40.30;;;;;;7677720;23;20231;-66
2021/07/24 14:25:06;;;;;;;8.73;6.45;;;39.90;42.20;;;;;;7651157;23;20175;-67
2021/07/24 14:28:08;;;;;;;8.10;6.88;;;40.10;39.10;;;;;;7675303;23;20630;-65
2021/07/24 14:31:10;;;;;;;7.30;6.55;;;39.50;39.80;;;;;;7676942;23;20285;-72
2021/07/24 14:34:14;;;;;;;11.13;6.97;;;39.60;39.60;;;;;;7677559;23;20164;-66
2021/07/24 14:37:16;;;;;;;8.65;7.75;;;40.00;39.20;;;;;;7675971;23;20462;-66
2021/07/24 14:40:18;;;;;;;8.20;7.10;;;40.30;38.80;;;;;;7676970;23;20164;-66
2021/07/24 14:43:20;;;;;;;8.48;7.55;;;40.50;39.30;;;;;;7677268;23;20249;-66
2021/07/24 14:46:23;;;;;;;7.47;6.78;;;40.30;38.50;;;;;;7677526;23;20261;-64
2021/07/24 14:49:25;;;;;;;7.28;6.68;;;40.40;39.20;;;;;;7677383;23;20168;-65
2021/07/24 14:52:27;;;;;;;7.93;7.28;;;40.80;38.30;;;;;;7651113;23;20218;-67
2021/07/24 14:55:29;;;;;;;8.20;7.45;;;41.10;37.80;;;;;;7651019;23;20242;-65
2021/07/24 14:58:32;;;;;;;8.70;7.10;;;41.10;37.50;;;;;;7651403;23;20190;-65
2021/07/24 15:01:34;;;;;;;7.05;6.55;;;41.20;37.30;;;;;;7677564;23;20250;-65
2021/07/24 15:04:37;;;;;;;7.53;6.72;;;41.50;38.10;;;;;;7676638;23;20199;-66
2021/07/24 15:07:39;;;;;;;7.35;6.75;;;41.60;37.50;;;;;;7676688;23;20464;-65
2021/07/24 15:10:41;;;;;;;7.90;7.10;;;41.30;37.50;;;;;;7675840;23;20184;-66
2021/07/24 15:13:44;;;;;;;7.65;6.82;;;41.20;37.10;;;;;;7677214;23;20171;-66
2021/07/24 15:16:46;;;;;;;8.07;7.07;;;41.00;37.90;;;;;;7677032;23;20164;-67
2021/07/24 15:19:48;;;;;;;7.60;6.90;;;41.00;38.50;;;;;;7650194;23;20218;-66
2021/07/24 15:22:51;;;;;;;7.60;6.85;;;41.00;38.20;;;;;;7675869;23;20283;-66
2021/07/24 15:25:54;;;;;;;7.75;6.68;;;41.00;37.80;;;;;;7676526;23;20195;-66
2021/07/24 15:28:56;;;;;;;7.63;6.75;;;41.00;37.70;;;;;;7676216;23;20271;-66
2021/07/24 15:31:58;;;;;;;7.00;6.32;;;41.10;38.20;;;;;;7675192;23;20196;-66
2021/07/24 15:35:04;;;;;;;7.78;6.90;;;41.10;39.50;;;;;;7676821;23;20167;-65
2021/07/24 15:38:07;;;;;;;7.78;7.07;;;40.60;39.60;;;;;;7675813;23;20149;-66
2021/07/24 15:41:11;;;;;;;7.47;6.63;;;39.90;39.60;;;;;;7675903;23;20165;-66
2021/07/24 15:44:13;;;;;;;7.07;6.25;;;39.60;38.70;;;;;;7650321;23;20976;-66
2021/07/24 15:47:17;;;;;;;9.13;7.05;;;39.60;41.80;;;;;;7675397;23;20254;-67
2021/07/24 15:50:19;;;;;;;7.10;6.50;;;39.90;42.30;;;;;;7675871;23;20183;-66
2021/07/24 15:53:21;;;;;;;9.05;6.95;;;40.30;41.90;;;;;;7675135;23;20274;-65
2021/07/24 15:56:23;;;;;;;6.82;6.22;;;40.60;40.60;;;;;;7673994;23;20161;-66
2021/07/24 15:59:26;;;;;;;10.68;7.40;;;40.30;41.70;;;;;;7675438;23;20167;-65